Hobart, Oklahoma
Current Conditions -  °F | °C
As of 2:53 PM on Friday 21 Nov 2014 (Local Time) from KHBR Reporting Station
Clear Clear  
Wind Chill: 57°   Ceiling: Unl
Heat Index: 57°   Visibility: 9mi
Dew Point: 45°   Wind: 14mph
Humidity: 64%   Direction: 200°SSW
Pressure: 30.01"   Gusts: NA
Location:  35.03°N, 99.09°W
Report Text: KHBR 212053Z AUTO 20012KT 9SM CLR 14/07 A3001 RMK AO2 SLP162 T01390072 56019
Loading
Personal Weather Stations






























Interactive Weather Map New forecast layout! Learn more

10-Day Weather Forecast

Advertisements
Track Severe Weather on mobile